createdAt,value
2023-04-23T00:01:19.278Z,11.81
2023-04-23T00:03:50.263Z,11.74
2023-04-23T00:06:18.976Z,11.55
2023-04-23T00:08:49.992Z,11.34
2023-04-23T00:11:19.208Z,11.20
2023-04-23T00:13:49.635Z,11.12
2023-04-23T00:16:20.032Z,11.23
2023-04-23T00:18:48.481Z,11.23
2023-04-23T00:21:16.699Z,11.51
2023-04-23T00:23:45.077Z,11.52
2023-04-23T00:26:14.548Z,11.50
2023-04-23T00:28:42.875Z,11.31
2023-04-23T00:31:11.002Z,11.43
2023-04-23T00:33:39.726Z,11.41
2023-04-23T00:36:08.921Z,11.40
2023-04-23T00:38:37.804Z,11.25
2023-04-23T00:41:06.289Z,11.24
2023-04-23T00:43:39.067Z,11.12
2023-04-23T00:46:07.632Z,11.11
2023-04-23T00:48:36.020Z,11.07
2023-04-23T00:51:06.189Z,10.97
2023-04-23T00:53:35.159Z,10.87
2023-04-23T00:56:05.355Z,10.96
2023-04-23T00:58:34.374Z,10.84
2023-04-23T01:01:05.410Z,10.81
2023-04-23T01:03:36.693Z,10.91
2023-04-23T01:06:05.850Z,10.93
2023-04-23T01:08:36.285Z,10.98
2023-04-23T01:11:06.085Z,10.96
2023-04-23T01:13:35.684Z,11.00
2023-04-23T01:16:05.442Z,11.02
2023-04-23T01:18:34.290Z,10.92
2023-04-23T01:21:02.842Z,11.04
2023-04-23T01:23:32.517Z,11.12
2023-04-23T01:26:00.677Z,11.11
2023-04-23T01:28:29.514Z,10.92
2023-04-23T01:30:58.261Z,10.70
2023-04-23T01:33:27.202Z,10.81
2023-04-23T01:35:56.623Z,11.00
2023-04-23T01:38:26.550Z,11.03
2023-04-23T01:40:56.137Z,11.00
2023-04-23T01:43:24.393Z,10.94
2023-04-23T01:45:52.852Z,11.03
2023-04-23T01:48:21.604Z,11.04
2023-04-23T01:50:50.973Z,10.94
2023-04-23T01:53:19.550Z,10.99
2023-04-23T01:55:49.029Z,11.06
2023-04-23T01:58:19.490Z,11.09
2023-04-23T02:00:47.854Z,11.09
2023-04-23T02:03:16.874Z,11.01
2023-04-23T02:05:45.821Z,10.99
2023-04-23T02:08:13.891Z,11.01
2023-04-23T02:10:41.994Z,11.14
2023-04-23T02:13:10.132Z,11.06
2023-04-23T02:15:40.778Z,11.04
2023-04-23T02:18:09.109Z,11.08
2023-04-23T02:20:40.897Z,11.09
2023-04-23T02:23:09.741Z,11.02
2023-04-23T02:25:39.423Z,10.99
2023-04-23T02:28:08.498Z,10.99
2023-04-23T02:30:37.275Z,10.78
2023-04-23T02:33:06.843Z,10.84
2023-04-23T02:35:35.064Z,10.87
2023-04-23T02:38:03.656Z,10.58
2023-04-23T02:40:32.458Z,10.50
2023-04-23T02:43:00.699Z,10.52
2023-04-23T02:45:28.791Z,10.52
2023-04-23T02:47:57.010Z,10.54
2023-04-23T02:50:26.680Z,10.50
2023-04-23T02:52:54.924Z,10.45
2023-04-23T02:55:25.302Z,10.41
2023-04-23T02:57:53.381Z,10.58
2023-04-23T03:00:22.010Z,10.54
2023-04-23T03:02:50.896Z,10.47
2023-04-23T03:05:19.356Z,10.37
2023-04-23T03:07:49.020Z,10.36
2023-04-23T03:10:17.063Z,10.32
2023-04-23T03:12:45.597Z,10.19
2023-04-23T03:15:14.378Z,10.25
2023-04-23T03:17:42.616Z,10.29
2023-04-23T03:20:12.570Z,10.58
2023-04-23T03:22:41.820Z,10.53
2023-04-23T03:25:11.606Z,10.68
2023-04-23T03:27:40.672Z,10.60
2023-04-23T03:30:10.632Z,10.71
2023-04-23T03:32:40.244Z,10.84
2023-04-23T03:35:09.699Z,10.74
2023-04-23T03:37:40.836Z,10.75
2023-04-23T03:40:11.498Z,10.68
2023-04-23T03:42:41.926Z,10.71
2023-04-23T03:45:38.456Z,10.78
2023-04-23T03:48:07.685Z,10.80
2023-04-23T03:50:38.956Z,10.90
2023-04-23T03:53:23.987Z,10.84
2023-04-23T03:56:31.634Z,10.67
2023-04-23T03:59:11.712Z,10.65
2023-04-23T04:01:40.144Z,10.54
2023-04-23T04:04:08.763Z,10.59
2023-04-23T04:06:37.438Z,10.58
2023-04-23T04:09:08.045Z,10.52
2023-04-23T04:11:37.775Z,10.49
2023-04-23T04:14:06.541Z,10.46
2023-04-23T04:16:35.049Z,10.46
2023-04-23T04:19:04.300Z,10.55
2023-04-23T04:21:33.883Z,10.57
2023-04-23T04:24:02.871Z,10.65
2023-04-23T04:26:32.448Z,10.71
2023-04-23T04:29:02.082Z,10.72
2023-04-23T04:31:31.148Z,10.60
2023-04-23T04:33:59.682Z,10.54
2023-04-23T04:36:29.001Z,10.65
2023-04-23T04:38:58.724Z,10.69
2023-04-23T04:41:27.768Z,10.66
2023-04-23T04:43:56.281Z,10.77
2023-04-23T04:46:29.433Z,10.77
2023-04-23T04:48:57.762Z,10.80
2023-04-23T04:51:31.780Z,10.85
2023-04-23T04:54:07.815Z,10.98
2023-04-23T04:56:39.732Z,11.10
2023-04-23T04:59:14.897Z,11.13
2023-04-23T05:01:49.155Z,11.15
2023-04-23T05:04:23.174Z,11.19
2023-04-23T05:06:54.264Z,11.11
2023-04-23T05:09:25.215Z,11.06
2023-04-23T05:11:54.947Z,11.04
2023-04-23T05:14:28.681Z,11.15
2023-04-23T05:17:00.060Z,11.10
2023-04-23T05:19:32.861Z,10.75
2023-04-23T05:22:04.681Z,10.29
2023-04-23T05:24:34.577Z,9.98
2023-04-23T05:27:03.917Z,9.93
2023-04-23T05:29:33.738Z,10.05
2023-04-23T05:32:08.091Z,10.15
2023-04-23T05:34:42.987Z,10.24
2023-04-23T05:37:20.605Z,10.38
2023-04-23T05:39:52.171Z,10.44
2023-04-23T05:42:22.014Z,10.69
2023-04-23T05:44:53.409Z,11.00
2023-04-23T05:47:24.610Z,11.04
2023-04-23T05:49:57.999Z,11.28
2023-04-23T05:52:31.702Z,11.35
2023-04-23T05:55:02.302Z,11.45
2023-04-23T05:57:33.514Z,11.67
2023-04-23T06:00:12.347Z,11.97
2023-04-23T06:02:53.145Z,12.26
2023-04-23T06:05:23.550Z,12.37
2023-04-23T06:08:00.898Z,12.67
2023-04-23T06:10:33.890Z,12.75
2023-04-23T06:13:07.230Z,13.05
2023-04-23T06:15:39.695Z,13.35
2023-04-23T06:18:19.274Z,13.21
2023-04-23T06:20:53.542Z,13.49
2023-04-23T06:23:28.786Z,13.85
2023-04-23T06:26:12.327Z,13.38
2023-04-23T06:28:48.382Z,13.26
2023-04-23T06:31:48.277Z,13.49
2023-04-23T06:34:26.798Z,13.83
2023-04-23T06:37:00.452Z,14.15
2023-04-23T06:39:33.270Z,14.24
2023-04-23T06:42:04.066Z,13.81
2023-04-23T06:44:52.240Z,13.63
2023-04-23T06:47:22.855Z,13.57
2023-04-23T06:49:56.065Z,13.46
2023-04-23T06:52:30.503Z,13.51
2023-04-23T06:55:02.264Z,13.76
2023-04-23T06:57:44.672Z,13.71
2023-04-23T07:00:17.402Z,14.50
2023-04-23T07:02:57.102Z,15.25
2023-04-23T07:05:32.190Z,15.53
2023-04-23T07:08:05.221Z,16.18
2023-04-23T07:10:39.008Z,16.79
2023-04-23T07:13:15.090Z,16.66
2023-04-23T07:15:46.830Z,16.41
2023-04-23T07:18:21.786Z,15.35
2023-04-23T07:20:56.507Z,14.65
2023-04-23T07:23:26.990Z,14.76
2023-04-23T07:25:59.802Z,14.46
2023-04-23T07:28:41.610Z,14.90
2023-04-23T07:31:18.284Z,15.28
2023-04-23T07:33:52.719Z,15.57
2023-04-23T07:36:30.196Z,15.31
2023-04-23T07:38:59.009Z,15.45
2023-04-23T07:41:27.195Z,15.47
2023-04-23T07:43:56.808Z,15.81
2023-04-23T07:46:25.022Z,16.99
2023-04-23T07:48:53.873Z,17.49
2023-04-23T07:51:26.593Z,16.60
2023-04-23T07:53:56.633Z,15.92
2023-04-23T07:56:25.593Z,15.36
2023-04-23T07:58:56.823Z,14.90
2023-04-23T08:01:25.831Z,14.99
2023-04-23T08:03:59.053Z,14.42
2023-04-23T08:06:30.186Z,14.57
2023-04-23T08:09:00.390Z,14.53
2023-04-23T08:11:29.693Z,14.14
2023-04-23T08:13:58.012Z,14.08
2023-04-23T08:16:26.845Z,14.03
2023-04-23T08:19:04.764Z,13.97
2023-04-23T08:21:33.779Z,14.27
2023-04-23T08:24:04.362Z,14.19
2023-04-23T08:26:32.706Z,14.26
2023-04-23T08:29:01.762Z,13.98
2023-04-23T08:31:30.527Z,13.80
2023-04-23T08:33:59.367Z,13.71
2023-04-23T08:36:27.774Z,13.76
2023-04-23T08:38:56.195Z,13.58
2023-04-23T08:41:31.587Z,13.56
2023-04-23T08:44:08.760Z,13.74
2023-04-23T08:46:38.968Z,13.90
2023-04-23T08:49:14.733Z,14.24
2023-04-23T08:51:47.502Z,15.03
2023-04-23T08:54:19.863Z,15.82
2023-04-23T08:56:52.328Z,16.12
2023-04-23T08:59:23.098Z,15.82
2023-04-23T09:01:52.270Z,16.72
2023-04-23T09:04:20.792Z,18.17
2023-04-23T09:06:48.997Z,18.23
2023-04-23T09:09:18.125Z,18.25
2023-04-23T09:11:46.614Z,18.02
2023-04-23T09:14:16.147Z,17.38
2023-04-23T09:16:44.733Z,17.38
2023-04-23T09:19:13.142Z,18.19
2023-04-23T09:21:42.054Z,17.98
2023-04-23T09:24:12.539Z,17.52
2023-04-23T09:26:46.869Z,17.28
2023-04-23T09:29:19.039Z,17.38
2023-04-23T09:31:49.492Z,17.48
2023-04-23T09:34:19.275Z,18.02
2023-04-23T09:36:50.722Z,17.90
2023-04-23T09:39:19.991Z,17.98
2023-04-23T09:41:48.195Z,17.47
2023-04-23T09:44:22.609Z,17.37
2023-04-23T09:46:51.056Z,17.84
2023-04-23T09:49:19.631Z,17.23
2023-04-23T09:51:49.179Z,17.06
2023-04-23T09:54:19.034Z,17.41
2023-04-23T09:56:52.719Z,17.79
2023-04-23T09:59:46.896Z,17.46
2023-04-23T10:02:12.920Z,18.26
2023-04-23T10:04:42.130Z,18.14
2023-04-23T10:07:19.762Z,17.73
2023-04-23T10:09:49.311Z,18.55
2023-04-23T10:12:36.599Z,18.20
2023-04-23T10:15:11.394Z,18.05
2023-04-23T10:17:40.475Z,18.04
2023-04-23T10:20:12.287Z,18.10
2023-04-23T10:22:45.432Z,17.92
2023-04-23T10:25:14.419Z,19.19
2023-04-23T10:27:53.831Z,18.17
2023-04-23T10:30:24.203Z,16.77
2023-04-23T10:32:52.864Z,16.20
2023-04-23T10:35:21.356Z,16.00
2023-04-23T10:37:51.200Z,15.90
2023-04-23T10:40:24.869Z,15.81
2023-04-23T10:42:53.780Z,15.75
2023-04-23T10:45:25.629Z,15.83
2023-04-23T10:47:56.083Z,15.91
2023-04-23T10:50:26.837Z,15.53
2023-04-23T10:52:57.646Z,15.05
2023-04-23T10:55:28.011Z,14.90
2023-04-23T10:58:01.903Z,14.70
2023-04-23T11:00:45.992Z,14.74
2023-04-23T11:03:42.653Z,14.74
2023-04-23T11:06:16.420Z,14.74
2023-04-23T11:08:55.276Z,14.86
2023-04-23T11:11:40.768Z,15.19
2023-04-23T11:14:14.416Z,15.27
2023-04-23T11:16:44.315Z,15.41
2023-04-23T11:19:13.500Z,15.59
2023-04-23T11:22:01.764Z,15.41
2023-04-23T11:24:32.799Z,15.38
2023-04-23T11:27:02.982Z,15.48
2023-04-23T11:29:31.117Z,15.36
2023-04-23T11:32:03.470Z,15.23
2023-04-23T11:34:33.369Z,15.28
2023-04-23T11:37:03.613Z,15.53
2023-04-23T11:39:32.090Z,15.39
2023-04-23T11:42:03.004Z,15.39
2023-04-23T11:44:31.787Z,15.34
2023-04-23T11:47:27.340Z,15.46
2023-04-23T11:49:55.718Z,15.61
2023-04-23T11:52:24.015Z,15.47
2023-04-23T11:54:52.240Z,15.33
2023-04-23T11:57:20.678Z,15.23
2023-04-23T11:59:48.789Z,15.01
2023-04-23T12:02:17.208Z,15.12
2023-04-23T12:04:46.860Z,14.87
2023-04-23T12:07:25.738Z,14.77
2023-04-23T12:09:59.565Z,14.71
2023-04-23T12:12:34.354Z,14.73
2023-04-23T12:15:07.344Z,14.72
2023-04-23T12:17:41.889Z,14.81
2023-04-23T12:20:19.338Z,14.76
2023-04-23T12:22:47.821Z,15.02
2023-04-23T12:25:17.184Z,15.33
2023-04-23T12:27:47.296Z,15.07
2023-04-23T12:30:15.657Z,15.16
2023-04-23T12:32:45.013Z,15.03
2023-04-23T12:35:14.505Z,14.78
2023-04-23T12:37:42.862Z,14.90
2023-04-23T12:40:11.940Z,15.20
2023-04-23T12:42:40.478Z,14.94
2023-04-23T12:45:11.291Z,15.19
2023-04-23T12:47:39.559Z,15.16
2023-04-23T12:50:08.944Z,14.94
2023-04-23T12:52:38.781Z,14.77
2023-04-23T12:55:07.735Z,14.93
2023-04-23T12:57:36.227Z,15.25
2023-04-23T13:00:06.096Z,15.22
2023-04-23T13:02:34.686Z,15.74
2023-04-23T13:05:02.988Z,16.84
2023-04-23T13:07:31.436Z,16.73
2023-04-23T13:10:00.998Z,16.36
2023-04-23T13:12:29.238Z,15.69
2023-04-23T13:14:57.587Z,15.42
2023-04-23T13:17:27.027Z,15.26
2023-04-23T13:19:55.847Z,15.13
2023-04-23T13:22:28.465Z,15.21
2023-04-23T13:24:58.035Z,15.02
2023-04-23T13:27:30.981Z,14.99
2023-04-23T13:29:59.584Z,15.13
2023-04-23T13:32:32.216Z,15.07
2023-04-23T13:35:04.089Z,14.82
2023-04-23T13:37:33.747Z,14.98
2023-04-23T13:40:02.400Z,14.75
2023-04-23T13:42:34.409Z,14.44
2023-04-23T13:45:05.297Z,14.31
2023-04-23T13:47:34.973Z,14.09
2023-04-23T13:50:06.862Z,13.83
2023-04-23T13:52:36.137Z,13.26
2023-04-23T13:55:07.895Z,13.04
2023-04-23T13:57:39.674Z,13.10
2023-04-23T14:00:17.555Z,12.96
2023-04-23T14:02:47.681Z,13.04
2023-04-23T14:05:16.151Z,13.24
2023-04-23T14:07:45.047Z,13.29
2023-04-23T14:10:13.403Z,13.22
2023-04-23T14:12:43.053Z,13.13
2023-04-23T14:15:12.021Z,13.13
2023-04-23T14:17:40.861Z,12.99
2023-04-23T14:20:09.888Z,12.98
2023-04-23T14:22:38.183Z,12.92
2023-04-23T14:25:10.868Z,12.99
2023-04-23T14:27:45.809Z,12.92
2023-04-23T14:30:20.024Z,12.94
2023-04-23T14:32:50.415Z,12.98
2023-04-23T14:35:24.500Z,13.04
2023-04-23T14:37:57.619Z,12.99
2023-04-23T14:40:25.892Z,12.70
2023-04-23T14:42:59.390Z,12.67
2023-04-23T14:45:33.714Z,12.71
2023-04-23T14:48:02.274Z,12.72
2023-04-23T14:50:32.462Z,12.77
2023-04-23T14:53:04.473Z,12.69
2023-04-23T14:55:33.905Z,12.81
2023-04-23T14:58:05.101Z,12.76
2023-04-23T15:00:33.589Z,12.82
2023-04-23T15:03:02.773Z,12.81
2023-04-23T15:05:31.882Z,12.82
2023-04-23T15:08:00.047Z,12.73
2023-04-23T15:10:28.276Z,12.69
2023-04-23T15:13:05.266Z,12.72
2023-04-23T15:15:46.036Z,12.76
2023-04-23T15:18:15.767Z,12.87
2023-04-23T15:20:44.906Z,12.87
2023-04-23T15:23:13.119Z,12.92
2023-04-23T15:25:41.763Z,12.96
2023-04-23T15:28:11.204Z,13.06
2023-04-23T15:30:41.042Z,12.97
2023-04-23T15:33:09.902Z,13.74
2023-04-23T15:35:38.374Z,13.99
2023-04-23T15:38:06.912Z,13.56
2023-04-23T15:40:42.079Z,13.49
2023-04-23T15:43:21.532Z,13.48
2023-04-23T15:45:54.769Z,14.04
2023-04-23T15:48:24.246Z,14.17
2023-04-23T15:50:52.825Z,13.76
2023-04-23T15:53:23.398Z,13.90
2023-04-23T15:55:52.311Z,13.92
2023-04-23T15:58:21.300Z,13.75
2023-04-23T16:00:51.145Z,13.59
2023-04-23T16:03:23.260Z,13.53
2023-04-23T16:05:52.435Z,13.28
2023-04-23T16:08:20.810Z,12.96
2023-04-23T16:10:49.240Z,12.95
2023-04-23T16:13:19.076Z,12.82
2023-04-23T16:15:48.123Z,12.86
2023-04-23T16:18:18.553Z,12.82
2023-04-23T16:20:47.152Z,12.90
2023-04-23T16:23:15.709Z,13.05
2023-04-23T16:25:44.384Z,13.13
2023-04-23T16:28:13.883Z,13.08
2023-04-23T16:30:42.220Z,12.86
2023-04-23T16:33:10.629Z,12.89
2023-04-23T16:35:40.924Z,12.86
2023-04-23T16:38:11.409Z,12.87
2023-04-23T16:40:40.669Z,12.68
2023-04-23T16:43:08.783Z,12.59
2023-04-23T16:45:38.345Z,12.70
2023-04-23T16:48:07.687Z,12.62
2023-04-23T16:50:35.761Z,12.83
2023-04-23T16:53:05.804Z,12.83
2023-04-23T16:55:33.972Z,12.90
2023-04-23T16:58:02.424Z,12.87
2023-04-23T17:00:30.821Z,12.80
2023-04-23T17:02:59.649Z,12.78
2023-04-23T17:05:31.152Z,12.85
2023-04-23T17:07:59.619Z,12.91
2023-04-23T17:10:29.345Z,13.01
2023-04-23T17:12:57.646Z,13.16
2023-04-23T17:15:26.044Z,13.24
2023-04-23T17:17:54.284Z,12.99
2023-04-23T17:20:22.832Z,13.04
2023-04-23T17:22:51.582Z,13.04
2023-04-23T17:25:19.717Z,13.13
2023-04-23T17:27:49.430Z,13.08
2023-04-23T17:30:17.657Z,12.74
2023-04-23T17:32:45.815Z,12.89
2023-04-23T17:35:14.319Z,12.84
2023-04-23T17:37:43.006Z,12.56
2023-04-23T17:40:11.992Z,12.38
2023-04-23T17:42:40.109Z,12.41
2023-04-23T17:45:12.897Z,12.41
2023-04-23T17:47:41.655Z,12.27
2023-04-23T17:50:11.761Z,12.25
2023-04-23T17:52:41.184Z,12.38
2023-04-23T17:55:09.830Z,12.40
2023-04-23T17:57:38.008Z,12.24
2023-04-23T18:00:10.050Z,12.32
2023-04-23T18:02:42.627Z,12.24
2023-04-23T18:05:12.044Z,12.12
2023-04-23T18:07:41.878Z,11.87
2023-04-23T18:10:12.427Z,11.88
2023-04-23T18:12:41.104Z,11.74
2023-04-23T18:15:12.396Z,11.71
2023-04-23T18:17:42.432Z,11.61
2023-04-23T18:20:11.210Z,11.63
2023-04-23T18:22:42.175Z,11.53
2023-04-23T18:25:12.931Z,11.46
2023-04-23T18:27:41.786Z,11.36
2023-04-23T18:30:12.121Z,11.32
2023-04-23T18:32:48.643Z,11.21
2023-04-23T18:35:17.017Z,11.22
2023-04-23T18:37:54.627Z,11.08
2023-04-23T18:40:22.856Z,11.00
2023-04-23T18:42:51.763Z,11.00
2023-04-23T18:45:20.167Z,10.97
2023-04-23T18:47:56.971Z,10.87
2023-04-23T18:50:38.071Z,10.79
2023-04-23T18:53:06.587Z,10.65
2023-04-23T18:55:35.039Z,10.50
2023-04-23T18:58:03.617Z,10.45
2023-04-23T19:00:31.961Z,10.37
2023-04-23T19:03:06.497Z,10.43
2023-04-23T19:05:37.771Z,10.29
2023-04-23T19:08:06.386Z,10.16
2023-04-23T19:10:34.561Z,10.14
2023-04-23T19:13:02.753Z,10.05
2023-04-23T19:15:31.285Z,9.92
2023-04-23T19:17:59.548Z,9.81
2023-04-23T19:20:31.195Z,9.85
2023-04-23T19:22:59.462Z,9.84
2023-04-23T19:25:27.487Z,9.80
2023-04-23T19:27:56.139Z,9.84
2023-04-23T19:30:24.461Z,9.80
2023-04-23T19:32:53.424Z,9.74
2023-04-23T19:35:22.154Z,9.71
2023-04-23T19:37:51.622Z,9.49
2023-04-23T19:40:19.758Z,9.41
2023-04-23T19:42:48.688Z,9.50
2023-04-23T19:45:18.466Z,9.54
2023-04-23T19:47:46.744Z,9.53
2023-04-23T19:50:15.457Z,9.65
2023-04-23T19:52:43.612Z,9.62
2023-04-23T19:55:13.322Z,9.47
2023-04-23T19:57:41.618Z,9.40
2023-04-23T20:00:14.168Z,9.54
2023-04-23T20:02:42.832Z,9.60
2023-04-23T20:05:11.571Z,9.59
2023-04-23T20:07:40.390Z,9.62
2023-04-23T20:10:09.436Z,9.51
2023-04-23T20:12:39.804Z,9.46
2023-04-23T20:15:09.388Z,9.35
2023-04-23T20:17:45.169Z,9.18
2023-04-23T20:20:13.522Z,9.02
2023-04-23T20:22:41.821Z,8.92
2023-04-23T20:25:10.563Z,8.97
2023-04-23T20:27:40.120Z,9.22
2023-04-23T20:30:11.864Z,9.40
2023-04-23T20:32:40.260Z,9.31
2023-04-23T20:35:09.503Z,9.19
2023-04-23T20:37:38.067Z,9.18
2023-04-23T20:40:08.191Z,9.13
2023-04-23T20:42:39.185Z,9.14
2023-04-23T20:45:10.823Z,9.09
2023-04-23T20:47:39.060Z,9.24
2023-04-23T20:50:08.395Z,9.30
2023-04-23T20:52:36.589Z,9.32
2023-04-23T20:55:04.923Z,9.22
2023-04-23T20:57:33.486Z,9.26
2023-04-23T21:00:01.682Z,9.39
2023-04-23T21:02:32.295Z,9.38
2023-04-23T21:05:00.861Z,9.47
2023-04-23T21:07:28.947Z,9.54
2023-04-23T21:09:57.445Z,9.69
2023-04-23T21:12:26.419Z,9.67
2023-04-23T21:15:01.606Z,9.73
2023-04-23T21:17:31.286Z,9.68
2023-04-23T21:19:59.448Z,9.73
2023-04-23T21:22:27.600Z,9.72
2023-04-23T21:24:55.684Z,9.50
2023-04-23T21:27:24.039Z,9.46
2023-04-23T21:29:52.596Z,9.42
2023-04-23T21:32:53.534Z,9.38
2023-04-23T21:35:24.418Z,9.50
2023-04-23T21:37:52.523Z,9.48
2023-04-23T21:40:21.181Z,9.47
2023-04-23T21:42:50.094Z,9.34
2023-04-23T21:45:18.579Z,9.43
2023-04-23T21:47:47.270Z,9.18
2023-04-23T21:50:17.504Z,8.95
2023-04-23T21:52:46.271Z,8.76
2023-04-23T21:55:14.457Z,8.67
2023-04-23T21:57:42.622Z,8.83
2023-04-23T22:00:13.995Z,8.98
2023-04-23T22:02:46.363Z,8.79
2023-04-23T22:05:20.116Z,8.57
2023-04-23T22:07:49.394Z,8.64
2023-04-23T22:10:18.586Z,8.69
2023-04-23T22:12:48.567Z,8.71
2023-04-23T22:15:18.838Z,8.73
2023-04-23T22:17:50.437Z,8.73
2023-04-23T22:20:23.702Z,8.65
2023-04-23T22:22:52.302Z,8.61
2023-04-23T22:25:20.665Z,8.51
2023-04-23T22:27:48.894Z,8.53
2023-04-23T22:30:16.966Z,8.55
2023-04-23T22:32:45.392Z,8.39
2023-04-23T22:35:13.747Z,8.21
2023-04-23T22:37:43.660Z,8.18
2023-04-23T22:40:12.305Z,8.30
2023-04-23T22:42:40.451Z,8.38
2023-04-23T22:45:09.453Z,8.55
2023-04-23T22:47:37.746Z,8.82
2023-04-23T22:50:07.847Z,8.95
2023-04-23T22:52:36.131Z,9.01
2023-04-23T22:55:06.241Z,9.03
2023-04-23T22:57:35.387Z,9.09
2023-04-23T23:00:05.220Z,9.19
2023-04-23T23:02:33.600Z,9.26
2023-04-23T23:05:02.171Z,9.13
2023-04-23T23:07:31.473Z,8.93
2023-04-23T23:09:59.764Z,8.78
2023-04-23T23:12:29.390Z,8.80
2023-04-23T23:14:57.707Z,8.65
2023-04-23T23:17:25.792Z,8.77
2023-04-23T23:19:53.862Z,8.72
2023-04-23T23:22:22.155Z,8.88
2023-04-23T23:24:50.314Z,9.01
2023-04-23T23:27:18.388Z,9.07
2023-04-23T23:29:47.812Z,9.12
2023-04-23T23:32:16.090Z,9.07
2023-04-23T23:34:44.304Z,8.87
2023-04-23T23:37:12.430Z,8.63
2023-04-23T23:39:41.299Z,8.38
2023-04-23T23:42:09.750Z,8.23
2023-04-23T23:44:37.796Z,8.11
2023-04-23T23:47:07.591Z,8.02
2023-04-23T23:49:35.910Z,8.02
2023-04-23T23:52:04.311Z,7.93
2023-04-23T23:54:32.344Z,7.87
2023-04-23T23:57:01.531Z,7.82
2023-04-23T23:59:29.607Z,7.83
